createdAt,value
2022-10-21T00:02:05.595Z,12.00
2022-10-21T00:04:32.415Z,11.50
2022-10-21T00:06:59.138Z,12.40
2022-10-21T00:09:25.762Z,12.30
2022-10-21T00:11:52.384Z,12.00
2022-10-21T00:14:20.007Z,12.50
2022-10-21T00:16:46.643Z,12.20
2022-10-21T00:19:13.287Z,11.90
2022-10-21T00:21:41.055Z,12.40
2022-10-21T00:24:07.820Z,12.20
2022-10-21T00:26:37.661Z,11.10
2022-10-21T00:29:05.333Z,11.20
2022-10-21T00:31:33.888Z,12.40
2022-10-21T00:34:00.653Z,12.60
2022-10-21T00:36:27.421Z,11.90
2022-10-21T00:38:54.151Z,12.00
2022-10-21T00:41:20.809Z,12.70
2022-10-21T00:43:58.366Z,11.20
2022-10-21T00:46:34.954Z,12.40
2022-10-21T00:49:02.680Z,11.10
2022-10-21T00:51:30.558Z,11.90
2022-10-21T00:53:57.612Z,12.10
2022-10-21T00:56:27.001Z,11.30
2022-10-21T00:58:55.238Z,10.50
2022-10-21T01:02:02.900Z,12.20
2022-10-21T01:04:29.591Z,11.50
2022-10-21T01:06:56.362Z,11.50
2022-10-21T01:09:23.163Z,11.50
2022-10-21T01:11:50.051Z,10.60
2022-10-21T01:14:28.951Z,12.40
2022-10-21T01:17:26.554Z,11.50
2022-10-21T01:20:14.959Z,11.50
2022-10-21T01:22:56.009Z,11.40
2022-10-21T01:25:22.553Z,11.40
2022-10-21T01:28:01.903Z,11.30
2022-10-21T01:31:04.101Z,11.50
2022-10-21T01:33:39.136Z,11.60
2022-10-21T01:36:12.174Z,11.60
2022-10-21T01:39:00.757Z,11.60
2022-10-21T01:41:35.230Z,11.60
2022-10-21T01:44:08.111Z,11.60
2022-10-21T01:46:40.688Z,11.50
2022-10-21T01:49:18.118Z,12.60
2022-10-21T01:51:44.776Z,11.40
2022-10-21T01:54:15.258Z,11.20
2022-10-21T01:56:43.036Z,11.10
2022-10-21T01:59:10.799Z,12.40
2022-10-21T02:01:38.069Z,11.20
2022-10-21T02:04:05.494Z,11.40
2022-10-21T02:06:32.137Z,11.40
2022-10-21T02:08:58.808Z,11.30
2022-10-21T02:11:25.556Z,11.30
2022-10-21T02:13:52.086Z,12.80
2022-10-21T02:16:21.491Z,11.30
2022-10-21T02:18:48.103Z,12.70
2022-10-21T02:21:19.068Z,12.30
2022-10-21T02:23:45.604Z,10.70
2022-10-21T02:26:12.330Z,11.20
2022-10-21T02:31:14.815Z,10.90
2022-10-21T02:33:47.829Z,10.90
2022-10-21T02:36:16.993Z,11.00
2022-10-21T02:38:52.032Z,10.40
2022-10-21T02:41:21.377Z,10.90
2022-10-21T02:43:54.492Z,10.80
2022-10-21T02:46:21.277Z,10.80
2022-10-21T02:48:48.226Z,10.70
2022-10-21T02:51:15.080Z,9.90
2022-10-21T02:53:42.064Z,10.70
2022-10-21T02:56:09.030Z,10.60
2022-10-21T02:58:36.017Z,10.60
2022-10-21T03:01:02.660Z,10.70
2022-10-21T03:03:29.999Z,10.60
2022-10-21T03:05:56.902Z,10.60
2022-10-21T03:08:23.557Z,10.50
2022-10-21T03:10:53.037Z,10.90
2022-10-21T03:13:20.489Z,10.60
2022-10-21T03:15:47.991Z,11.00
2022-10-21T03:18:14.547Z,10.30
2022-10-21T03:20:41.178Z,10.40
2022-10-21T03:23:08.033Z,10.40
2022-10-21T03:25:35.812Z,9.70
2022-10-21T03:28:02.586Z,10.40
2022-10-21T03:30:29.216Z,10.30
2022-10-21T03:32:55.787Z,10.20
2022-10-21T03:35:22.509Z,9.40
2022-10-21T03:37:49.234Z,10.30
2022-10-21T03:40:15.864Z,10.20
2022-10-21T03:42:42.482Z,11.50
2022-10-21T03:45:09.305Z,10.20
2022-10-21T03:47:35.887Z,10.30
2022-10-21T03:50:03.906Z,10.20
2022-10-21T03:52:32.134Z,10.20
2022-10-21T03:54:58.710Z,11.90
2022-10-21T03:57:25.353Z,10.10
2022-10-21T03:59:51.919Z,10.10
2022-10-21T04:02:18.569Z,9.80
2022-10-21T04:04:45.143Z,10.40
2022-10-21T04:07:11.796Z,10.10
2022-10-21T04:09:38.369Z,11.60
2022-10-21T04:12:05.034Z,10.10
2022-10-21T04:14:31.707Z,10.30
2022-10-21T04:17:06.825Z,10.90
2022-10-21T04:19:33.974Z,10.40
2022-10-21T04:22:00.611Z,9.70
2022-10-21T04:24:27.268Z,11.10
2022-10-21T04:26:53.915Z,12.10
2022-10-21T04:29:20.644Z,9.60
2022-10-21T04:31:47.365Z,10.20
2022-10-21T04:34:14.061Z,10.90
2022-10-21T04:36:40.705Z,11.70
2022-10-21T04:39:07.539Z,11.90
2022-10-21T04:41:34.184Z,11.60
2022-10-21T04:44:01.520Z,11.40
2022-10-21T04:46:28.141Z,11.10
2022-10-21T04:48:54.778Z,11.50
2022-10-21T04:51:21.459Z,11.20
2022-10-21T04:53:48.134Z,12.10
2022-10-21T04:56:14.776Z,10.40
2022-10-21T04:58:41.419Z,11.00
2022-10-21T05:01:08.154Z,11.70
2022-10-21T05:04:07.923Z,11.00
2022-10-21T05:06:34.568Z,10.10
2022-10-21T05:09:01.319Z,11.70
2022-10-21T05:11:28.060Z,10.70
2022-10-21T05:13:54.760Z,10.90
2022-10-21T05:16:21.425Z,11.60
2022-10-21T05:18:48.076Z,11.60
2022-10-21T05:21:14.703Z,10.60
2022-10-21T05:23:41.725Z,11.00
2022-10-21T05:26:08.623Z,10.60
2022-10-21T05:28:35.281Z,11.20
2022-10-21T05:31:01.922Z,10.10
2022-10-21T05:33:28.951Z,10.70
2022-10-21T05:36:01.023Z,11.60
2022-10-21T05:38:31.107Z,10.50
2022-10-21T05:40:57.742Z,10.20
2022-10-21T05:43:24.553Z,10.10
2022-10-21T05:45:51.186Z,10.30
2022-10-21T05:48:18.329Z,11.70
2022-10-21T05:50:45.803Z,11.30
2022-10-21T05:53:13.143Z,11.00
2022-10-21T05:55:39.946Z,10.00
2022-10-21T05:58:07.026Z,11.80
2022-10-21T06:00:33.810Z,11.20
2022-10-21T06:03:00.511Z,11.70
2022-10-21T06:05:28.168Z,11.80
2022-10-21T06:07:54.826Z,10.70
2022-10-21T06:10:24.263Z,11.20
2022-10-21T06:12:52.246Z,11.80
2022-10-21T06:15:18.949Z,10.80
2022-10-21T06:17:45.744Z,10.90
2022-10-21T06:20:12.824Z,10.50
2022-10-21T06:22:39.505Z,11.50
2022-10-21T06:25:06.367Z,10.40
2022-10-21T06:27:33.083Z,10.60
2022-10-21T06:29:59.750Z,10.20
2022-10-21T06:32:26.445Z,11.50
2022-10-21T06:34:53.242Z,11.60
2022-10-21T06:37:19.879Z,11.90
2022-10-21T06:39:46.586Z,12.20
2022-10-21T06:42:14.550Z,11.50
2022-10-21T06:44:41.431Z,12.30
2022-10-21T06:47:08.529Z,11.70
2022-10-21T06:49:35.191Z,11.00
2022-10-21T06:52:01.906Z,12.00
2022-10-21T06:54:28.527Z,12.40
2022-10-21T06:56:55.145Z,12.00
2022-10-21T06:59:21.846Z,12.40
2022-10-21T07:01:59.701Z,12.90
2022-10-21T07:04:27.607Z,12.90
2022-10-21T07:06:54.334Z,11.30
2022-10-21T07:09:21.117Z,12.60
2022-10-21T07:11:47.795Z,12.90
2022-10-21T07:14:14.462Z,12.20
2022-10-21T07:16:41.188Z,13.10
2022-10-21T07:19:08.608Z,12.20
2022-10-21T07:21:35.275Z,13.10
2022-10-21T07:24:01.937Z,12.50
2022-10-21T07:26:29.844Z,12.80
2022-10-21T07:28:58.413Z,13.40
2022-10-21T07:31:25.360Z,12.90
2022-10-21T07:33:52.529Z,13.50
2022-10-21T07:36:20.692Z,12.80
2022-10-21T07:38:48.283Z,13.30
2022-10-21T07:41:21.688Z,12.20
2022-10-21T07:43:48.877Z,12.00
2022-10-21T07:46:16.080Z,12.00
2022-10-21T07:48:42.716Z,14.10
2022-10-21T07:51:11.510Z,13.60
2022-10-21T07:53:39.070Z,13.40
2022-10-21T07:56:07.386Z,12.90
2022-10-21T07:58:34.298Z,12.00
2022-10-21T08:01:01.692Z,13.30
2022-10-21T08:03:28.705Z,13.30
2022-10-21T08:05:55.929Z,13.60
2022-10-21T08:08:23.157Z,13.00
2022-10-21T08:13:17.528Z,13.50
2022-10-21T08:15:44.892Z,13.70
2022-10-21T08:18:11.685Z,13.60
2022-10-21T08:20:43.376Z,13.20
2022-10-21T08:23:10.825Z,13.10
2022-10-21T08:25:37.515Z,14.10
2022-10-21T08:28:05.456Z,13.70
2022-10-21T08:30:32.857Z,12.40
2022-10-21T08:32:59.592Z,13.10
2022-10-21T08:35:29.686Z,13.70
2022-10-21T08:37:56.418Z,12.60
2022-10-21T08:40:23.194Z,13.20
2022-10-21T08:42:49.864Z,14.20
2022-10-21T08:45:16.500Z,13.70
2022-10-21T08:47:45.966Z,12.80
2022-10-21T08:50:14.617Z,13.40
2022-10-21T08:52:43.864Z,13.50
2022-10-21T08:55:14.387Z,13.20
2022-10-21T08:57:41.503Z,12.70
2022-10-21T09:00:15.094Z,13.40
2022-10-21T09:03:00.588Z,12.40
2022-10-21T09:05:33.403Z,12.50
2022-10-21T09:08:06.018Z,12.60
2022-10-21T09:10:35.785Z,13.00
2022-10-21T09:13:05.942Z,12.50
2022-10-21T09:15:38.728Z,13.40
2022-10-21T09:18:24.271Z,12.70
2022-10-21T09:21:10.029Z,12.60
2022-10-21T09:23:50.946Z,12.80
2022-10-21T09:28:45.591Z,12.80
2022-10-21T09:31:14.692Z,13.60
2022-10-21T09:33:43.928Z,13.40
2022-10-21T09:36:24.999Z,14.30
2022-10-21T09:38:55.426Z,14.00
2022-10-21T09:41:24.999Z,13.40
2022-10-21T09:43:51.918Z,14.60
2022-10-21T09:46:18.840Z,14.30
2022-10-21T09:51:40.107Z,14.10
2022-10-21T09:54:11.956Z,14.10
2022-10-21T09:56:57.005Z,13.20
2022-10-21T09:59:29.061Z,13.10
2022-10-21T10:02:05.852Z,14.40
2022-10-21T10:04:33.189Z,12.60
2022-10-21T10:07:19.068Z,12.60
2022-10-21T10:09:46.582Z,13.00
2022-10-21T10:12:14.619Z,12.80
2022-10-21T10:14:42.463Z,13.30
2022-10-21T10:17:29.001Z,14.80
2022-10-21T10:20:05.181Z,13.20
2022-10-21T10:22:32.946Z,13.20
2022-10-21T10:25:11.919Z,13.60
2022-10-21T10:27:52.496Z,13.30
2022-10-21T10:30:20.037Z,13.30
2022-10-21T10:32:47.293Z,13.00
2022-10-21T10:35:33.695Z,13.80
2022-10-21T10:38:02.365Z,13.30
2022-10-21T10:40:38.894Z,14.20
2022-10-21T10:43:24.422Z,14.50
2022-10-21T10:45:53.574Z,13.30
2022-10-21T10:48:22.946Z,13.90
2022-10-21T10:50:50.005Z,14.80
2022-10-21T10:53:30.438Z,14.10
2022-10-21T10:56:06.322Z,13.50
2022-10-21T10:58:39.035Z,13.50
2022-10-21T11:04:21.610Z,13.40
2022-10-21T11:06:51.189Z,13.30
2022-10-21T11:09:21.681Z,13.60
2022-10-21T11:11:51.402Z,13.80
2022-10-21T11:14:21.753Z,13.00
2022-10-21T11:16:59.423Z,13.80
2022-10-21T11:19:42.043Z,14.20
2022-10-21T11:22:12.900Z,13.20
2022-10-21T11:24:51.140Z,13.80
2022-10-21T11:27:25.168Z,13.30
2022-10-21T11:30:01.699Z,13.00
2022-10-21T11:32:51.338Z,13.40
2022-10-21T11:35:33.184Z,13.40
2022-10-21T11:38:18.663Z,13.30
2022-10-21T11:40:49.161Z,13.40
2022-10-21T11:43:24.059Z,13.60
2022-10-21T11:45:59.738Z,14.40
2022-10-21T11:48:29.412Z,13.40
2022-10-21T11:51:11.551Z,13.40
2022-10-21T11:53:57.405Z,13.60
2022-10-21T11:56:27.007Z,13.30
2022-10-21T11:59:12.720Z,13.40
2022-10-21T12:01:58.231Z,13.40
2022-10-21T12:04:25.107Z,13.40
2022-10-21T12:07:00.935Z,13.60
2022-10-21T12:09:30.574Z,13.40
2022-10-21T12:12:09.633Z,13.50
2022-10-21T12:14:49.270Z,13.60
2022-10-21T12:17:17.873Z,13.70
2022-10-21T12:20:11.732Z,13.20
2022-10-21T12:22:38.770Z,13.80
2022-10-21T12:25:12.508Z,13.90
2022-10-21T12:27:51.414Z,14.10
2022-10-21T12:30:36.771Z,14.30
2022-10-21T12:33:09.396Z,14.40
2022-10-21T12:35:45.587Z,14.60
2022-10-21T12:38:27.561Z,14.70
2022-10-21T12:41:12.907Z,14.70
2022-10-21T12:43:39.547Z,14.70
2022-10-21T12:46:07.776Z,15.00
2022-10-21T12:48:39.402Z,15.00
2022-10-21T12:51:07.561Z,15.60
2022-10-21T12:53:42.131Z,15.70
2022-10-21T12:56:09.906Z,15.70
2022-10-21T12:58:41.629Z,15.70
2022-10-21T13:01:28.877Z,15.60
2022-10-21T13:03:56.028Z,15.60
2022-10-21T13:06:48.225Z,15.80
2022-10-21T13:09:33.684Z,15.90
2022-10-21T13:12:09.387Z,16.10
2022-10-21T13:14:42.200Z,16.60
2022-10-21T13:17:16.247Z,17.40
2022-10-21T13:19:42.865Z,18.40
2022-10-21T13:22:15.011Z,18.50
2022-10-21T13:24:42.137Z,18.10
2022-10-21T13:27:27.741Z,18.00
2022-10-21T13:29:54.513Z,17.30
2022-10-21T13:32:23.407Z,17.40
2022-10-21T13:35:01.751Z,16.90
2022-10-21T13:37:31.180Z,16.60
2022-10-21T13:39:59.140Z,16.50
2022-10-21T13:42:27.421Z,16.30
2022-10-21T13:44:57.493Z,16.00
2022-10-21T13:47:31.650Z,16.00
2022-10-21T13:50:04.488Z,16.00
2022-10-21T13:52:31.223Z,15.90
2022-10-21T13:54:59.092Z,16.20
2022-10-21T13:57:32.540Z,16.00
2022-10-21T14:00:05.239Z,16.00
2022-10-21T14:02:31.804Z,15.80
2022-10-21T14:04:58.532Z,16.60
2022-10-21T14:07:26.005Z,16.10
2022-10-21T14:09:54.905Z,16.10
2022-10-21T14:12:26.838Z,16.10
2022-10-21T14:14:55.871Z,16.00
2022-10-21T14:17:23.883Z,16.00
2022-10-21T14:19:52.519Z,15.90
2022-10-21T14:22:20.451Z,16.40
2022-10-21T14:24:48.926Z,16.10
2022-10-21T14:27:20.388Z,16.30
2022-10-21T14:29:47.283Z,16.20
2022-10-21T14:32:15.435Z,16.30
2022-10-21T14:34:54.283Z,16.80
2022-10-21T14:37:21.430Z,17.30
2022-10-21T14:39:48.008Z,18.40
2022-10-21T14:42:22.247Z,19.10
2022-10-21T14:44:50.575Z,19.80
2022-10-21T14:47:18.849Z,19.80
2022-10-21T14:49:47.336Z,19.70
2022-10-21T14:52:28.497Z,19.40
2022-10-21T14:54:57.759Z,18.70
2022-10-21T14:57:42.821Z,18.70
2022-10-21T15:00:20.505Z,18.00
2022-10-21T15:02:47.122Z,17.80
2022-10-21T15:05:32.564Z,17.60
2022-10-21T15:08:17.812Z,17.40
2022-10-21T15:10:44.456Z,17.20
2022-10-21T15:13:17.890Z,17.50
2022-10-21T15:15:46.135Z,16.80
2022-10-21T15:18:14.401Z,16.60
2022-10-21T15:20:53.146Z,16.60
2022-10-21T15:23:23.460Z,16.60
2022-10-21T15:25:54.821Z,16.50
2022-10-21T15:28:23.241Z,16.40
2022-10-21T15:30:52.107Z,16.40
2022-10-21T15:33:18.656Z,16.10
2022-10-21T15:35:45.234Z,16.00
2022-10-21T15:38:12.713Z,16.10
2022-10-21T15:40:39.351Z,15.80
2022-10-21T15:43:05.927Z,16.00
2022-10-21T15:45:33.206Z,16.60
2022-10-21T15:47:59.757Z,16.30
2022-10-21T15:50:26.982Z,16.10
2022-10-21T15:52:53.702Z,15.80
2022-10-21T15:55:20.305Z,15.90
2022-10-21T15:57:46.876Z,15.30
2022-10-21T16:00:21.812Z,15.30
2022-10-21T16:02:49.250Z,15.00
2022-10-21T16:05:16.224Z,15.10
2022-10-21T16:07:42.881Z,15.20
2022-10-21T16:10:30.211Z,14.70
2022-10-21T16:12:57.292Z,15.00
2022-10-21T16:15:24.741Z,14.60
2022-10-21T16:17:53.654Z,14.60
2022-10-21T16:20:22.364Z,14.60
2022-10-21T16:22:49.091Z,14.50
2022-10-21T16:25:15.974Z,14.40
2022-10-21T16:27:55.090Z,14.40
2022-10-21T16:30:22.460Z,14.20
2022-10-21T16:32:49.119Z,14.30
2022-10-21T16:35:16.390Z,14.30
2022-10-21T16:37:43.054Z,14.20
2022-10-21T16:40:16.222Z,14.20
2022-10-21T16:42:42.945Z,14.10
2022-10-21T16:45:09.829Z,14.10
2022-10-21T16:47:36.659Z,14.00
2022-10-21T16:50:04.339Z,13.90
2022-10-21T16:52:32.164Z,13.90
2022-10-21T16:54:58.739Z,14.30
2022-10-21T16:57:25.282Z,13.70
2022-10-21T16:59:51.828Z,13.60
2022-10-21T17:02:19.266Z,14.70
2022-10-21T17:04:47.040Z,13.50
2022-10-21T17:07:13.727Z,14.60
2022-10-21T17:09:40.307Z,13.50
2022-10-21T17:12:07.594Z,13.30
2022-10-21T17:17:01.696Z,13.20
2022-10-21T17:19:28.249Z,13.30
2022-10-21T17:21:54.876Z,12.90
2022-10-21T17:24:21.944Z,13.20
2022-10-21T17:26:48.526Z,12.90
2022-10-21T17:29:15.556Z,13.20
2022-10-21T17:31:42.885Z,13.60
2022-10-21T17:34:24.466Z,13.20
2022-10-21T17:36:51.118Z,13.20
2022-10-21T17:39:17.667Z,13.20
2022-10-21T17:41:44.291Z,13.70
2022-10-21T17:44:14.068Z,13.20
2022-10-21T17:46:40.669Z,13.30
2022-10-21T17:49:07.203Z,13.70
2022-10-21T17:51:33.829Z,13.60
2022-10-21T17:54:00.458Z,13.30
2022-10-21T17:56:27.039Z,12.80
2022-10-21T17:58:54.927Z,13.20
2022-10-21T18:01:22.674Z,13.10
2022-10-21T18:03:49.341Z,13.00
2022-10-21T18:06:15.979Z,13.00
2022-10-21T18:08:42.578Z,13.00
2022-10-21T18:11:10.167Z,13.00
2022-10-21T18:13:37.156Z,13.50
2022-10-21T18:16:05.154Z,12.70
2022-10-21T18:18:32.093Z,12.90
2022-10-21T18:21:06.269Z,12.90
2022-10-21T18:23:32.946Z,12.90
2022-10-21T18:26:06.702Z,13.70
2022-10-21T18:28:34.253Z,13.00
2022-10-21T18:31:01.383Z,12.80
2022-10-21T18:33:28.312Z,12.40
2022-10-21T18:35:54.890Z,12.70
2022-10-21T18:38:21.800Z,13.00
2022-10-21T18:40:56.631Z,12.10
2022-10-21T18:43:35.406Z,12.40
2022-10-21T18:46:02.734Z,12.20
2022-10-21T18:48:29.395Z,12.60
2022-10-21T18:50:55.938Z,12.60
2022-10-21T18:53:22.563Z,12.40
2022-10-21T18:55:49.139Z,12.00
2022-10-21T18:58:15.709Z,12.60
2022-10-21T19:00:42.330Z,12.50
2022-10-21T19:03:08.854Z,12.80
2022-10-21T19:05:35.463Z,13.00
2022-10-21T19:08:02.004Z,12.30
2022-10-21T19:10:28.659Z,13.20
2022-10-21T19:12:55.289Z,12.60
2022-10-21T19:15:21.850Z,12.90
2022-10-21T19:17:48.496Z,12.40
2022-10-21T19:20:15.246Z,11.80
2022-10-21T19:22:41.815Z,12.40
2022-10-21T19:25:08.570Z,11.60
2022-10-21T19:54:32.173Z,11.80
2022-10-21T19:59:25.792Z,11.50
2022-10-21T20:01:52.394Z,12.10
2022-10-21T20:04:19.026Z,12.60
2022-10-21T20:06:45.872Z,12.40
2022-10-21T20:09:14.087Z,12.00
2022-10-21T20:14:07.805Z,11.90
2022-10-21T20:16:36.294Z,11.60
2022-10-21T20:19:04.342Z,12.60
2022-10-21T20:23:58.685Z,12.00
2022-10-21T20:26:25.565Z,11.70
2022-10-21T20:28:52.223Z,12.00
2022-10-21T20:31:19.073Z,12.80
2022-10-21T20:33:49.657Z,12.60
2022-10-21T20:36:21.493Z,11.90
2022-10-21T20:38:48.654Z,12.10
2022-10-21T20:41:17.499Z,11.40
2022-10-21T20:43:44.328Z,11.80
2022-10-21T20:46:12.682Z,11.40
2022-10-21T20:48:46.781Z,11.40
2022-10-21T20:51:26.915Z,11.80
2022-10-21T20:53:57.937Z,11.70
2022-10-21T21:06:12.720Z,11.60
2022-10-21T21:08:48.641Z,11.30
2022-10-21T21:13:44.524Z,11.60
2022-10-21T21:21:06.448Z,11.60
2022-10-21T21:26:07.975Z,11.50
2022-10-21T21:35:57.143Z,11.40
2022-10-21T21:38:24.563Z,11.80
2022-10-21T22:59:44.222Z,11.00
2022-10-21T23:29:28.422Z,11.00
